sensor_id;sensor_type;location;lat;lon;timestamp;P1;durP1;ratioP1;P2;durP2;ratioP2
19816;SDS011;68323;49.394;8.434;2023-10-13T00:02:15;21.40;;;9.90;;
19816;SDS011;68323;49.394;8.434;2023-10-13T00:04:44;22.10;;;10.13;;
19816;SDS011;68323;49.394;8.434;2023-10-13T00:07:11;21.03;;;10.07;;
19816;SDS011;68323;49.394;8.434;2023-10-13T00:09:37;20.97;;;9.93;;
19816;SDS011;68323;49.394;8.434;2023-10-13T00:12:04;20.83;;;10.10;;
19816;SDS011;68323;49.394;8.434;2023-10-13T00:14:34;19.03;;;10.43;;
19816;SDS011;68323;49.394;8.434;2023-10-13T00:17:01;16.30;;;8.97;;
19816;SDS011;68323;49.394;8.434;2023-10-13T00:19:34;17.57;;;9.60;;
19816;SDS011;68323;49.394;8.434;2023-10-13T00:22:07;20.27;;;9.93;;
19816;SDS011;68323;49.394;8.434;2023-10-13T00:24:37;18.17;;;9.90;;
19816;SDS011;68323;49.394;8.434;2023-10-13T00:27:13;18.33;;;9.30;;
19816;SDS011;68323;49.394;8.434;2023-10-13T00:29:56;22.93;;;10.73;;
19816;SDS011;68323;49.394;8.434;2023-10-13T00:32:47;16.90;;;9.93;;
19816;SDS011;68323;49.394;8.434;2023-10-13T00:35:18;16.87;;;9.53;;
19816;SDS011;68323;49.394;8.434;2023-10-13T00:37:52;16.37;;;9.87;;
19816;SDS011;68323;49.394;8.434;2023-10-13T00:40:22;21.00;;;9.80;;
19816;SDS011;68323;49.394;8.434;2023-10-13T00:42:55;17.67;;;9.70;;
19816;SDS011;68323;49.394;8.434;2023-10-13T00:45:29;18.67;;;9.73;;
19816;SDS011;68323;49.394;8.434;2023-10-13T00:47:56;19.03;;;9.50;;
19816;SDS011;68323;49.394;8.434;2023-10-13T00:50:26;22.43;;;9.70;;
19816;SDS011;68323;49.394;8.434;2023-10-13T00:52:52;17.60;;;9.33;;
19816;SDS011;68323;49.394;8.434;2023-10-13T00:55:20;14.27;;;9.63;;
19816;SDS011;68323;49.394;8.434;2023-10-13T00:57:49;19.73;;;10.20;;
19816;SDS011;68323;49.394;8.434;2023-10-13T01:00:19;16.53;;;9.67;;
19816;SDS011;68323;49.394;8.434;2023-10-13T01:02:53;19.73;;;10.60;;
19816;SDS011;68323;49.394;8.434;2023-10-13T01:05:29;18.27;;;9.60;;
19816;SDS011;68323;49.394;8.434;2023-10-13T01:08:00;20.30;;;9.17;;
19816;SDS011;68323;49.394;8.434;2023-10-13T01:10:26;21.83;;;9.10;;
19816;SDS011;68323;49.394;8.434;2023-10-13T01:13:01;21.10;;;9.13;;
19816;SDS011;68323;49.394;8.434;2023-10-13T01:15:27;19.03;;;9.37;;
19816;SDS011;68323;49.394;8.434;2023-10-13T01:18:06;20.40;;;9.73;;
19816;SDS011;68323;49.394;8.434;2023-10-13T01:20:36;19.43;;;9.87;;
19816;SDS011;68323;49.394;8.434;2023-10-13T01:23:14;20.30;;;10.50;;
19816;SDS011;68323;49.394;8.434;2023-10-13T01:25:44;19.03;;;9.70;;
19816;SDS011;68323;49.394;8.434;2023-10-13T01:28:11;15.90;;;9.13;;
19816;SDS011;68323;49.394;8.434;2023-10-13T01:30:42;16.47;;;10.43;;
19816;SDS011;68323;49.394;8.434;2023-10-13T01:33:15;18.53;;;10.00;;
19816;SDS011;68323;49.394;8.434;2023-10-13T01:35:41;15.93;;;9.53;;
19816;SDS011;68323;49.394;8.434;2023-10-13T01:38:12;18.27;;;9.80;;
19816;SDS011;68323;49.394;8.434;2023-10-13T01:40:38;16.20;;;10.30;;
19816;SDS011;68323;49.394;8.434;2023-10-13T01:43:04;18.63;;;9.57;;
19816;SDS011;68323;49.394;8.434;2023-10-13T01:45:35;20.77;;;9.83;;
19816;SDS011;68323;49.394;8.434;2023-10-13T01:48:04;16.30;;;9.50;;
19816;SDS011;68323;49.394;8.434;2023-10-13T01:50:32;17.37;;;9.87;;
19816;SDS011;68323;49.394;8.434;2023-10-13T01:52:58;17.83;;;10.00;;
19816;SDS011;68323;49.394;8.434;2023-10-13T01:55:42;15.90;;;9.37;;
19816;SDS011;68323;49.394;8.434;2023-10-13T01:58:09;18.70;;;9.93;;
19816;SDS011;68323;49.394;8.434;2023-10-13T02:00:40;18.17;;;10.20;;
19816;SDS011;68323;49.394;8.434;2023-10-13T02:03:13;18.73;;;9.93;;
19816;SDS011;68323;49.394;8.434;2023-10-13T02:05:48;17.57;;;10.47;;
19816;SDS011;68323;49.394;8.434;2023-10-13T02:08:18;20.10;;;10.10;;
19816;SDS011;68323;49.394;8.434;2023-10-13T02:10:49;23.17;;;10.50;;
19816;SDS011;68323;49.394;8.434;2023-10-13T02:13:15;17.03;;;9.43;;
19816;SDS011;68323;49.394;8.434;2023-10-13T02:15:45;19.67;;;9.97;;
19816;SDS011;68323;49.394;8.434;2023-10-13T02:18:16;18.90;;;9.97;;
19816;SDS011;68323;49.394;8.434;2023-10-13T02:21:01;14.40;;;10.33;;
19816;SDS011;68323;49.394;8.434;2023-10-13T02:23:32;15.97;;;10.03;;
19816;SDS011;68323;49.394;8.434;2023-10-13T02:26:01;19.20;;;10.20;;
19816;SDS011;68323;49.394;8.434;2023-10-13T02:28:36;16.80;;;10.00;;
19816;SDS011;68323;49.394;8.434;2023-10-13T02:31:02;18.97;;;10.50;;
19816;SDS011;68323;49.394;8.434;2023-10-13T02:33:31;20.53;;;10.60;;
19816;SDS011;68323;49.394;8.434;2023-10-13T02:36:11;22.57;;;10.60;;
19816;SDS011;68323;49.394;8.434;2023-10-13T02:38:37;17.83;;;10.37;;
19816;SDS011;68323;49.394;8.434;2023-10-13T02:41:04;16.40;;;10.20;;
19816;SDS011;68323;49.394;8.434;2023-10-13T02:43:34;17.80;;;10.50;;
19816;SDS011;68323;49.394;8.434;2023-10-13T02:46:00;17.90;;;10.00;;
19816;SDS011;68323;49.394;8.434;2023-10-13T02:48:26;20.93;;;10.73;;
19816;SDS011;68323;49.394;8.434;2023-10-13T02:50:59;20.40;;;10.90;;
19816;SDS011;68323;49.394;8.434;2023-10-13T02:53:40;20.03;;;10.33;;
19816;SDS011;68323;49.394;8.434;2023-10-13T02:56:06;20.23;;;11.23;;
19816;SDS011;68323;49.394;8.434;2023-10-13T02:58:33;22.63;;;10.90;;
19816;SDS011;68323;49.394;8.434;2023-10-13T03:01:09;25.63;;;10.27;;
19816;SDS011;68323;49.394;8.434;2023-10-13T03:03:42;17.97;;;10.77;;
19816;SDS011;68323;49.394;8.434;2023-10-13T03:06:08;17.77;;;10.17;;
19816;SDS011;68323;49.394;8.434;2023-10-13T03:08:37;17.23;;;9.60;;
19816;SDS011;68323;49.394;8.434;2023-10-13T03:11:04;20.73;;;9.77;;
19816;SDS011;68323;49.394;8.434;2023-10-13T03:13:30;16.00;;;9.30;;
19816;SDS011;68323;49.394;8.434;2023-10-13T03:15:59;19.27;;;9.33;;
19816;SDS011;68323;49.394;8.434;2023-10-13T03:18:29;21.93;;;9.17;;
19816;SDS011;68323;49.394;8.434;2023-10-13T03:20:59;19.80;;;10.13;;
19816;SDS011;68323;49.394;8.434;2023-10-13T03:23:28;17.97;;;9.50;;
19816;SDS011;68323;49.394;8.434;2023-10-13T03:26:00;16.67;;;9.03;;
19816;SDS011;68323;49.394;8.434;2023-10-13T03:28:36;18.87;;;9.20;;
19816;SDS011;68323;49.394;8.434;2023-10-13T03:31:03;24.13;;;9.70;;
19816;SDS011;68323;49.394;8.434;2023-10-13T03:33:29;17.57;;;9.03;;
19816;SDS011;68323;49.394;8.434;2023-10-13T03:35:58;22.13;;;9.80;;
19816;SDS011;68323;49.394;8.434;2023-10-13T03:38:31;18.33;;;9.20;;
19816;SDS011;68323;49.394;8.434;2023-10-13T03:41:01;17.20;;;9.57;;
19816;SDS011;68323;49.394;8.434;2023-10-13T03:43:37;15.10;;;8.90;;
19816;SDS011;68323;49.394;8.434;2023-10-13T03:46:32;23.67;;;8.83;;
19816;SDS011;68323;49.394;8.434;2023-10-13T03:48:58;19.33;;;8.77;;
19816;SDS011;68323;49.394;8.434;2023-10-13T03:51:27;15.60;;;8.57;;
19816;SDS011;68323;49.394;8.434;2023-10-13T03:53:56;15.63;;;8.90;;
19816;SDS011;68323;49.394;8.434;2023-10-13T03:56:24;15.60;;;8.10;;
19816;SDS011;68323;49.394;8.434;2023-10-13T03:58:57;17.13;;;8.30;;
19816;SDS011;68323;49.394;8.434;2023-10-13T04:01:29;18.33;;;8.53;;
19816;SDS011;68323;49.394;8.434;2023-10-13T04:04:09;16.33;;;8.97;;
19816;SDS011;68323;49.394;8.434;2023-10-13T04:06:39;15.07;;;7.43;;
19816;SDS011;68323;49.394;8.434;2023-10-13T04:09:18;14.60;;;7.40;;
19816;SDS011;68323;49.394;8.434;2023-10-13T04:12:19;19.93;;;8.37;;
19816;SDS011;68323;49.394;8.434;2023-10-13T04:15:04;16.37;;;8.20;;
19816;SDS011;68323;49.394;8.434;2023-10-13T04:17:33;17.87;;;8.50;;
19816;SDS011;68323;49.394;8.434;2023-10-13T04:20:05;13.80;;;7.90;;
19816;SDS011;68323;49.394;8.434;2023-10-13T04:25:16;17.20;;;8.40;;
19816;SDS011;68323;49.394;8.434;2023-10-13T04:28:02;18.80;;;8.30;;
19816;SDS011;68323;49.394;8.434;2023-10-13T04:30:52;14.57;;;7.47;;
19816;SDS011;68323;49.394;8.434;2023-10-13T04:33:21;16.20;;;7.93;;
19816;SDS011;68323;49.394;8.434;2023-10-13T04:36:02;22.13;;;8.07;;
19816;SDS011;68323;49.394;8.434;2023-10-13T04:38:39;15.60;;;8.07;;
19816;SDS011;68323;49.394;8.434;2023-10-13T04:41:28;14.80;;;8.27;;
19816;SDS011;68323;49.394;8.434;2023-10-13T04:44:06;15.63;;;8.30;;
19816;SDS011;68323;49.394;8.434;2023-10-13T04:46:52;21.43;;;8.90;;
19816;SDS011;68323;49.394;8.434;2023-10-13T04:49:24;17.10;;;8.90;;
19816;SDS011;68323;49.394;8.434;2023-10-13T04:51:57;14.10;;;8.67;;
19816;SDS011;68323;49.394;8.434;2023-10-13T04:54:26;13.70;;;8.77;;
19816;SDS011;68323;49.394;8.434;2023-10-13T04:57:02;21.20;;;8.13;;
19816;SDS011;68323;49.394;8.434;2023-10-13T04:59:47;16.77;;;8.20;;
19816;SDS011;68323;49.394;8.434;2023-10-13T05:02:28;16.17;;;8.70;;
19816;SDS011;68323;49.394;8.434;2023-10-13T05:05:04;14.97;;;8.40;;
19816;SDS011;68323;49.394;8.434;2023-10-13T05:07:47;18.90;;;8.83;;
19816;SDS011;68323;49.394;8.434;2023-10-13T05:10:33;16.30;;;8.27;;
19816;SDS011;68323;49.394;8.434;2023-10-13T05:13:18;18.63;;;8.40;;
19816;SDS011;68323;49.394;8.434;2023-10-13T05:16:03;17.63;;;8.70;;
19816;SDS011;68323;49.394;8.434;2023-10-13T05:18:47;16.97;;;8.77;;
19816;SDS011;68323;49.394;8.434;2023-10-13T05:21:32;18.13;;;8.77;;
19816;SDS011;68323;49.394;8.434;2023-10-13T05:24:16;12.77;;;8.10;;
19816;SDS011;68323;49.394;8.434;2023-10-13T05:27:01;17.77;;;8.17;;
19816;SDS011;68323;49.394;8.434;2023-10-13T05:29:46;18.70;;;8.60;;
19816;SDS011;68323;49.394;8.434;2023-10-13T05:32:31;12.17;;;7.60;;
19816;SDS011;68323;49.394;8.434;2023-10-13T05:35:35;13.30;;;8.27;;
19816;SDS011;68323;49.394;8.434;2023-10-13T05:38:20;12.93;;;8.03;;
19816;SDS011;68323;49.394;8.434;2023-10-13T05:41:05;11.83;;;8.03;;
19816;SDS011;68323;49.394;8.434;2023-10-13T05:43:50;15.33;;;8.10;;
19816;SDS011;68323;49.394;8.434;2023-10-13T05:49:14;19.07;;;7.87;;
19816;SDS011;68323;49.394;8.434;2023-10-13T05:51:43;14.00;;;7.43;;
19816;SDS011;68323;49.394;8.434;2023-10-13T05:54:22;17.60;;;7.83;;
19816;SDS011;68323;49.394;8.434;2023-10-13T05:57:07;14.70;;;7.60;;
19816;SDS011;68323;49.394;8.434;2023-10-13T05:59:52;15.27;;;7.37;;
19816;SDS011;68323;49.394;8.434;2023-10-13T06:02:50;12.67;;;7.27;;
19816;SDS011;68323;49.394;8.434;2023-10-13T06:05:35;15.47;;;7.27;;
19816;SDS011;68323;49.394;8.434;2023-10-13T06:11:36;10.07;;;6.73;;
19816;SDS011;68323;49.394;8.434;2023-10-13T06:14:21;17.33;;;6.67;;
19816;SDS011;68323;49.394;8.434;2023-10-13T06:17:15;11.57;;;6.53;;
19816;SDS011;68323;49.394;8.434;2023-10-13T06:23:34;10.80;;;6.20;;
19816;SDS011;68323;49.394;8.434;2023-10-13T06:26:19;12.77;;;6.60;;
19816;SDS011;68323;49.394;8.434;2023-10-13T06:36:02;21.27;;;6.10;;
19816;SDS011;68323;49.394;8.434;2023-10-13T06:48:34;16.93;;;6.03;;
19816;SDS011;68323;49.394;8.434;2023-10-13T06:51:18;16.07;;;5.13;;
19816;SDS011;68323;49.394;8.434;2023-10-13T06:57:15;14.90;;;5.90;;
19816;SDS011;68323;49.394;8.434;2023-10-13T07:06:29;12.00;;;5.83;;
19816;SDS011;68323;49.394;8.434;2023-10-13T07:12:21;18.90;;;5.80;;
19816;SDS011;68323;49.394;8.434;2023-10-13T07:18:26;11.85;;;5.75;;
19816;SDS011;68323;49.394;8.434;2023-10-13T07:21:00;9.70;;;5.32;;
19816;SDS011;68323;49.394;8.434;2023-10-13T07:26:33;13.80;;;5.07;;
19816;SDS011;68323;49.394;8.434;2023-10-13T07:37:00;10.55;;;4.47;;
19816;SDS011;68323;49.394;8.434;2023-10-13T07:39:47;11.45;;;4.60;;
19816;SDS011;68323;49.394;8.434;2023-10-13T07:42:22;9.10;;;4.20;;
19816;SDS011;68323;49.394;8.434;2023-10-13T07:44:59;11.50;;;4.43;;
19816;SDS011;68323;49.394;8.434;2023-10-13T07:47:32;13.05;;;4.70;;
19816;SDS011;68323;49.394;8.434;2023-10-13T07:49:59;8.38;;;4.40;;
19816;SDS011;68323;49.394;8.434;2023-10-13T07:52:34;10.68;;;4.63;;
19816;SDS011;68323;49.394;8.434;2023-10-13T07:55:05;11.48;;;4.30;;
19816;SDS011;68323;49.394;8.434;2023-10-13T07:57:39;10.63;;;4.20;;
19816;SDS011;68323;49.394;8.434;2023-10-13T08:00:25;13.50;;;4.82;;
19816;SDS011;68323;49.394;8.434;2023-10-13T08:03:03;10.88;;;4.65;;
19816;SDS011;68323;49.394;8.434;2023-10-13T08:05:42;11.23;;;4.30;;
19816;SDS011;68323;49.394;8.434;2023-10-13T08:08:26;9.70;;;4.35;;
19816;SDS011;68323;49.394;8.434;2023-10-13T08:11:02;8.57;;;4.20;;
19816;SDS011;68323;49.394;8.434;2023-10-13T08:13:50;12.88;;;4.05;;
19816;SDS011;68323;49.394;8.434;2023-10-13T08:16:37;9.98;;;4.32;;
19816;SDS011;68323;49.394;8.434;2023-10-13T08:19:19;6.30;;;4.20;;
19816;SDS011;68323;49.394;8.434;2023-10-13T08:21:52;9.43;;;4.40;;
19816;SDS011;68323;49.394;8.434;2023-10-13T08:24:27;8.60;;;4.30;;
19816;SDS011;68323;49.394;8.434;2023-10-13T08:27:18;9.48;;;4.15;;
19816;SDS011;68323;49.394;8.434;2023-10-13T08:30:03;9.60;;;4.50;;
19816;SDS011;68323;49.394;8.434;2023-10-13T08:32:48;11.48;;;3.60;;
19816;SDS011;68323;49.394;8.434;2023-10-13T08:35:20;12.25;;;4.10;;
19816;SDS011;68323;49.394;8.434;2023-10-13T08:37:55;9.90;;;4.28;;
19816;SDS011;68323;49.394;8.434;2023-10-13T08:40:23;10.25;;;4.05;;
19816;SDS011;68323;49.394;8.434;2023-10-13T08:43:11;8.82;;;4.53;;
19816;SDS011;68323;49.394;8.434;2023-10-13T08:45:41;7.15;;;4.30;;
19816;SDS011;68323;49.394;8.434;2023-10-13T08:48:08;8.48;;;4.13;;
19816;SDS011;68323;49.394;8.434;2023-10-13T08:50:49;11.75;;;4.53;;
19816;SDS011;68323;49.394;8.434;2023-10-13T08:53:22;11.70;;;4.28;;
19816;SDS011;68323;49.394;8.434;2023-10-13T08:56:02;13.48;;;4.13;;
19816;SDS011;68323;49.394;8.434;2023-10-13T08:58:47;10.88;;;4.07;;
19816;SDS011;68323;49.394;8.434;2023-10-13T09:01:26;10.93;;;4.30;;
19816;SDS011;68323;49.394;8.434;2023-10-13T09:12:12;9.98;;;4.47;;
19816;SDS011;68323;49.394;8.434;2023-10-13T09:14:41;13.43;;;4.25;;
19816;SDS011;68323;49.394;8.434;2023-10-13T09:17:09;12.00;;;4.40;;
19816;SDS011;68323;49.394;8.434;2023-10-13T09:22:27;12.60;;;4.45;;
19816;SDS011;68323;49.394;8.434;2023-10-13T09:25:03;12.13;;;4.18;;
19816;SDS011;68323;49.394;8.434;2023-10-13T09:27:38;8.38;;;3.85;;
19816;SDS011;68323;49.394;8.434;2023-10-13T09:30:05;10.25;;;4.10;;
19816;SDS011;68323;49.394;8.434;2023-10-13T09:32:47;9.68;;;4.20;;
19816;SDS011;68323;49.394;8.434;2023-10-13T09:35:26;12.38;;;3.88;;
19816;SDS011;68323;49.394;8.434;2023-10-13T09:37:52;11.48;;;4.00;;
19816;SDS011;68323;49.394;8.434;2023-10-13T09:40:24;12.75;;;4.05;;
19816;SDS011;68323;49.394;8.434;2023-10-13T09:42:51;11.27;;;3.90;;
19816;SDS011;68323;49.394;8.434;2023-10-13T09:45:20;7.85;;;3.83;;
19816;SDS011;68323;49.394;8.434;2023-10-13T09:47:52;10.18;;;3.67;;
19816;SDS011;68323;49.394;8.434;2023-10-13T09:50:24;10.38;;;3.58;;
19816;SDS011;68323;49.394;8.434;2023-10-13T09:52:58;16.02;;;4.05;;
19816;SDS011;68323;49.394;8.434;2023-10-13T09:55:29;6.25;;;3.50;;
19816;SDS011;68323;49.394;8.434;2023-10-13T09:58:01;13.73;;;4.30;;
19816;SDS011;68323;49.394;8.434;2023-10-13T10:00:52;10.15;;;4.47;;
19816;SDS011;68323;49.394;8.434;2023-10-13T10:03:44;9.30;;;4.13;;
19816;SDS011;68323;49.394;8.434;2023-10-13T10:06:20;7.45;;;3.53;;
19816;SDS011;68323;49.394;8.434;2023-10-13T10:08:53;9.60;;;4.13;;
19816;SDS011;68323;49.394;8.434;2023-10-13T10:11:44;10.75;;;3.90;;
19816;SDS011;68323;49.394;8.434;2023-10-13T10:14:15;13.15;;;3.88;;
19816;SDS011;68323;49.394;8.434;2023-10-13T10:19:11;11.63;;;4.13;;
19816;SDS011;68323;49.394;8.434;2023-10-13T10:21:37;10.90;;;3.92;;
19816;SDS011;68323;49.394;8.434;2023-10-13T10:24:16;12.85;;;4.00;;
19816;SDS011;68323;49.394;8.434;2023-10-13T10:26:54;13.45;;;4.28;;
19816;SDS011;68323;49.394;8.434;2023-10-13T10:29:19;8.82;;;3.70;;
19816;SDS011;68323;49.394;8.434;2023-10-13T10:31:45;9.05;;;4.63;;
19816;SDS011;68323;49.394;8.434;2023-10-13T10:34:16;8.77;;;4.13;;
19816;SDS011;68323;49.394;8.434;2023-10-13T10:36:56;8.23;;;4.47;;
19816;SDS011;68323;49.394;8.434;2023-10-13T10:39:36;11.15;;;4.13;;
19816;SDS011;68323;49.394;8.434;2023-10-13T10:42:10;10.50;;;3.95;;
19816;SDS011;68323;49.394;8.434;2023-10-13T10:45:07;13.43;;;3.72;;
19816;SDS011;68323;49.394;8.434;2023-10-13T10:47:36;9.05;;;3.67;;
19816;SDS011;68323;49.394;8.434;2023-10-13T10:50:03;9.38;;;3.92;;
19816;SDS011;68323;49.394;8.434;2023-10-13T10:52:43;10.77;;;4.40;;
19816;SDS011;68323;49.394;8.434;2023-10-13T10:55:09;10.93;;;4.07;;
19816;SDS011;68323;49.394;8.434;2023-10-13T10:57:38;10.23;;;4.18;;
19816;SDS011;68323;49.394;8.434;2023-10-13T11:00:17;9.10;;;4.28;;
19816;SDS011;68323;49.394;8.434;2023-10-13T11:03:33;12.75;;;4.47;;
19816;SDS011;68323;49.394;8.434;2023-10-13T11:09:31;11.93;;;4.07;;
19816;SDS011;68323;49.394;8.434;2023-10-13T11:12:11;9.15;;;4.30;;
19816;SDS011;68323;49.394;8.434;2023-10-13T11:14:45;10.90;;;4.13;;
19816;SDS011;68323;49.394;8.434;2023-10-13T11:17:22;14.27;;;4.03;;
19816;SDS011;68323;49.394;8.434;2023-10-13T11:19:58;12.68;;;4.18;;
19816;SDS011;68323;49.394;8.434;2023-10-13T11:22:46;13.20;;;4.25;;
19816;SDS011;68323;49.394;8.434;2023-10-13T11:25:27;14.88;;;4.40;;
19816;SDS011;68323;49.394;8.434;2023-10-13T11:28:13;8.13;;;3.97;;
19816;SDS011;68323;49.394;8.434;2023-10-13T11:30:45;9.48;;;4.18;;
19816;SDS011;68323;49.394;8.434;2023-10-13T11:33:16;11.13;;;4.65;;
19816;SDS011;68323;49.394;8.434;2023-10-13T11:35:44;7.65;;;4.32;;
19816;SDS011;68323;49.394;8.434;2023-10-13T11:38:17;11.93;;;4.22;;
19816;SDS011;68323;49.394;8.434;2023-10-13T11:41:03;10.68;;;4.03;;
19816;SDS011;68323;49.394;8.434;2023-10-13T11:43:40;13.27;;;4.30;;
19816;SDS011;68323;49.394;8.434;2023-10-13T11:46:09;8.63;;;4.25;;
19816;SDS011;68323;49.394;8.434;2023-10-13T11:48:35;8.02;;;4.05;;
19816;SDS011;68323;49.394;8.434;2023-10-13T11:51:02;12.43;;;4.38;;
19816;SDS011;68323;49.394;8.434;2023-10-13T11:59:35;15.48;;;4.43;;
19816;SDS011;68323;49.394;8.434;2023-10-13T12:02:12;6.93;;;4.03;;
19816;SDS011;68323;49.394;8.434;2023-10-13T12:04:50;13.45;;;4.68;;
19816;SDS011;68323;49.394;8.434;2023-10-13T12:07:19;10.02;;;4.00;;
19816;SDS011;68323;49.394;8.434;2023-10-13T12:09:47;11.77;;;4.60;;
19816;SDS011;68323;49.394;8.434;2023-10-13T12:12:20;19.27;;;5.20;;
19816;SDS011;68323;49.394;8.434;2023-10-13T12:14:46;13.48;;;5.10;;
19816;SDS011;68323;49.394;8.434;2023-10-13T12:17:21;10.75;;;4.50;;
19816;SDS011;68323;49.394;8.434;2023-10-13T12:19:59;13.38;;;4.05;;
19816;SDS011;68323;49.394;8.434;2023-10-13T12:22:25;10.90;;;4.40;;
19816;SDS011;68323;49.394;8.434;2023-10-13T12:25:01;10.98;;;4.43;;
19816;SDS011;68323;49.394;8.434;2023-10-13T12:27:29;8.00;;;4.18;;
19816;SDS011;68323;49.394;8.434;2023-10-13T12:30:13;7.07;;;4.20;;
19816;SDS011;68323;49.394;8.434;2023-10-13T12:32:41;8.68;;;4.20;;
19816;SDS011;68323;49.394;8.434;2023-10-13T12:35:19;10.15;;;4.40;;
19816;SDS011;68323;49.394;8.434;2023-10-13T12:38:19;9.90;;;4.95;;
19816;SDS011;68323;49.394;8.434;2023-10-13T12:41:04;12.30;;;4.82;;
19816;SDS011;68323;49.394;8.434;2023-10-13T12:43:48;13.60;;;4.43;;
19816;SDS011;68323;49.394;8.434;2023-10-13T12:46:33;12.98;;;4.45;;
19816;SDS011;68323;49.394;8.434;2023-10-13T12:49:18;9.52;;;4.40;;
19816;SDS011;68323;49.394;8.434;2023-10-13T12:52:04;11.10;;;4.40;;
19816;SDS011;68323;49.394;8.434;2023-10-13T12:54:41;9.90;;;4.68;;
19816;SDS011;68323;49.394;8.434;2023-10-13T12:57:12;9.32;;;4.30;;
19816;SDS011;68323;49.394;8.434;2023-10-13T12:59:38;9.10;;;4.35;;
19816;SDS011;68323;49.394;8.434;2023-10-13T13:02:04;12.82;;;4.40;;
19816;SDS011;68323;49.394;8.434;2023-10-13T13:04:32;11.02;;;4.70;;
19816;SDS011;68323;49.394;8.434;2023-10-13T13:07:02;10.27;;;4.10;;
19816;SDS011;68323;49.394;8.434;2023-10-13T13:09:29;13.88;;;4.32;;
19816;SDS011;68323;49.394;8.434;2023-10-13T13:11:56;11.32;;;4.13;;
19816;SDS011;68323;49.394;8.434;2023-10-13T13:14:22;8.60;;;4.40;;
19816;SDS011;68323;49.394;8.434;2023-10-13T13:16:59;11.05;;;4.53;;
19816;SDS011;68323;49.394;8.434;2023-10-13T13:19:35;11.73;;;4.50;;
19816;SDS011;68323;49.394;8.434;2023-10-13T13:22:04;13.02;;;4.00;;
19816;SDS011;68323;49.394;8.434;2023-10-13T13:24:30;10.60;;;3.80;;
19816;SDS011;68323;49.394;8.434;2023-10-13T13:26:59;9.27;;;4.05;;
19816;SDS011;68323;49.394;8.434;2023-10-13T13:29:29;10.10;;;4.45;;
19816;SDS011;68323;49.394;8.434;2023-10-13T13:31:56;10.32;;;4.07;;
19816;SDS011;68323;49.394;8.434;2023-10-13T13:34:22;13.38;;;4.30;;
19816;SDS011;68323;49.394;8.434;2023-10-13T13:36:48;11.38;;;4.03;;
19816;SDS011;68323;49.394;8.434;2023-10-13T13:39:19;11.75;;;4.20;;
19816;SDS011;68323;49.394;8.434;2023-10-13T13:41:54;13.52;;;4.43;;
19816;SDS011;68323;49.394;8.434;2023-10-13T13:44:22;15.25;;;4.13;;
19816;SDS011;68323;49.394;8.434;2023-10-13T13:46:54;17.17;;;4.60;;
19816;SDS011;68323;49.394;8.434;2023-10-13T13:49:21;9.98;;;3.95;;
19816;SDS011;68323;49.394;8.434;2023-10-13T13:51:54;11.20;;;4.30;;
19816;SDS011;68323;49.394;8.434;2023-10-13T13:54:29;10.15;;;4.43;;
19816;SDS011;68323;49.394;8.434;2023-10-13T13:56:55;13.35;;;3.80;;
19816;SDS011;68323;49.394;8.434;2023-10-13T13:59:22;11.25;;;4.35;;
19816;SDS011;68323;49.394;8.434;2023-10-13T14:01:50;11.25;;;4.32;;
19816;SDS011;68323;49.394;8.434;2023-10-13T14:04:18;16.90;;;4.53;;
19816;SDS011;68323;49.394;8.434;2023-10-13T14:06:44;8.45;;;3.53;;
19816;SDS011;68323;49.394;8.434;2023-10-13T14:09:10;10.95;;;4.60;;
19816;SDS011;68323;49.394;8.434;2023-10-13T14:11:41;12.13;;;4.45;;
19816;SDS011;68323;49.394;8.434;2023-10-13T14:14:36;12.13;;;3.97;;
19816;SDS011;68323;49.394;8.434;2023-10-13T14:17:02;8.23;;;4.00;;
19816;SDS011;68323;49.394;8.434;2023-10-13T14:19:31;11.60;;;4.05;;
19816;SDS011;68323;49.394;8.434;2023-10-13T14:21:58;8.88;;;3.97;;
19816;SDS011;68323;49.394;8.434;2023-10-13T14:24:25;12.32;;;4.13;;
19816;SDS011;68323;49.394;8.434;2023-10-13T14:26:58;9.55;;;3.60;;
19816;SDS011;68323;49.394;8.434;2023-10-13T14:29:32;10.55;;;4.10;;
19816;SDS011;68323;49.394;8.434;2023-10-13T14:31:58;11.80;;;4.07;;
19816;SDS011;68323;49.394;8.434;2023-10-13T14:34:24;11.00;;;3.63;;
19816;SDS011;68323;49.394;8.434;2023-10-13T14:36:51;12.63;;;4.15;;
19816;SDS011;68323;49.394;8.434;2023-10-13T14:39:19;8.65;;;3.85;;
19816;SDS011;68323;49.394;8.434;2023-10-13T14:41:46;8.88;;;3.70;;
19816;SDS011;68323;49.394;8.434;2023-10-13T14:44:13;13.77;;;3.97;;
19816;SDS011;68323;49.394;8.434;2023-10-13T14:46:39;10.80;;;3.97;;
19816;SDS011;68323;49.394;8.434;2023-10-13T14:49:05;12.85;;;4.28;;
19816;SDS011;68323;49.394;8.434;2023-10-13T14:51:31;11.57;;;3.90;;
19816;SDS011;68323;49.394;8.434;2023-10-13T14:53:58;13.15;;;3.72;;
19816;SDS011;68323;49.394;8.434;2023-10-13T14:56:29;16.23;;;3.67;;
19816;SDS011;68323;49.394;8.434;2023-10-13T14:58:55;11.85;;;4.07;;
19816;SDS011;68323;49.394;8.434;2023-10-13T15:01:22;10.80;;;4.05;;
19816;SDS011;68323;49.394;8.434;2023-10-13T15:03:52;12.55;;;3.90;;
19816;SDS011;68323;49.394;8.434;2023-10-13T15:06:25;14.35;;;4.07;;
19816;SDS011;68323;49.394;8.434;2023-10-13T15:08:58;12.70;;;4.22;;
19816;SDS011;68323;49.394;8.434;2023-10-13T15:11:24;14.23;;;4.35;;
19816;SDS011;68323;49.394;8.434;2023-10-13T15:14:03;9.70;;;3.95;;
19816;SDS011;68323;49.394;8.434;2023-10-13T15:16:31;10.25;;;3.50;;
19816;SDS011;68323;49.394;8.434;2023-10-13T15:18:58;14.23;;;3.92;;
19816;SDS011;68323;49.394;8.434;2023-10-13T15:21:25;8.75;;;3.72;;
19816;SDS011;68323;49.394;8.434;2023-10-13T15:23:55;13.93;;;3.92;;
19816;SDS011;68323;49.394;8.434;2023-10-13T15:26:25;13.38;;;3.97;;
19816;SDS011;68323;49.394;8.434;2023-10-13T15:28:50;15.80;;;3.90;;
19816;SDS011;68323;49.394;8.434;2023-10-13T15:31:20;15.38;;;3.90;;
19816;SDS011;68323;49.394;8.434;2023-10-13T15:33:58;11.32;;;3.92;;
19816;SDS011;68323;49.394;8.434;2023-10-13T15:36:24;14.13;;;4.07;;
19816;SDS011;68323;49.394;8.434;2023-10-13T15:38:50;12.00;;;4.93;;
19816;SDS011;68323;49.394;8.434;2023-10-13T15:41:28;13.93;;;5.03;;
19816;SDS011;68323;49.394;8.434;2023-10-13T15:43:54;10.98;;;3.90;;
19816;SDS011;68323;49.394;8.434;2023-10-13T15:46:23;9.35;;;4.03;;
19816;SDS011;68323;49.394;8.434;2023-10-13T15:48:52;13.43;;;4.18;;
19816;SDS011;68323;49.394;8.434;2023-10-13T15:51:18;7.43;;;4.00;;
19816;SDS011;68323;49.394;8.434;2023-10-13T15:53:44;9.45;;;4.20;;
19816;SDS011;68323;49.394;8.434;2023-10-13T15:56:12;10.52;;;4.10;;
19816;SDS011;68323;49.394;8.434;2023-10-13T15:58:39;16.73;;;4.47;;
19816;SDS011;68323;49.394;8.434;2023-10-13T16:01:05;14.82;;;4.03;;
19816;SDS011;68323;49.394;8.434;2023-10-13T16:03:34;13.43;;;4.18;;
19816;SDS011;68323;49.394;8.434;2023-10-13T16:06:03;11.90;;;4.63;;
19816;SDS011;68323;49.394;8.434;2023-10-13T16:08:35;14.63;;;3.90;;
19816;SDS011;68323;49.394;8.434;2023-10-13T16:11:05;9.65;;;3.80;;
19816;SDS011;68323;49.394;8.434;2023-10-13T16:13:38;13.60;;;3.92;;
19816;SDS011;68323;49.394;8.434;2023-10-13T16:16:05;13.55;;;4.15;;
19816;SDS011;68323;49.394;8.434;2023-10-13T16:18:31;14.32;;;4.50;;
19816;SDS011;68323;49.394;8.434;2023-10-13T16:21:00;14.18;;;4.38;;
19816;SDS011;68323;49.394;8.434;2023-10-13T16:23:28;17.17;;;4.38;;
19816;SDS011;68323;49.394;8.434;2023-10-13T16:25:55;17.52;;;4.38;;
19816;SDS011;68323;49.394;8.434;2023-10-13T16:28:24;13.02;;;3.90;;
19816;SDS011;68323;49.394;8.434;2023-10-13T16:30:49;11.95;;;4.03;;
19816;SDS011;68323;49.394;8.434;2023-10-13T16:33:18;15.55;;;4.28;;
19816;SDS011;68323;49.394;8.434;2023-10-13T16:35:47;19.83;;;4.35;;